sensor_id;sensor_type;location;lat;lon;timestamp;temperature;humidity
22173;DHT22;11252;50.596;17.648;2024-01-25T00:01:57;8.00;92.20
22173;DHT22;11252;50.596;17.648;2024-01-25T00:04:24;8.00;92.20
22173;DHT22;11252;50.596;17.648;2024-01-25T00:06:52;8.00;92.20
22173;DHT22;11252;50.596;17.648;2024-01-25T00:09:19;8.10;92.20
22173;DHT22;11252;50.596;17.648;2024-01-25T00:11:46;7.90;92.20
22173;DHT22;11252;50.596;17.648;2024-01-25T00:14:13;7.90;92.20
22173;DHT22;11252;50.596;17.648;2024-01-25T00:16:41;7.80;92.20
22173;DHT22;11252;50.596;17.648;2024-01-25T00:19:09;7.80;92.20
22173;DHT22;11252;50.596;17.648;2024-01-25T00:21:42;7.80;92.20
22173;DHT22;11252;50.596;17.648;2024-01-25T00:24:13;7.70;92.20
22173;DHT22;11252;50.596;17.648;2024-01-25T00:26:40;7.80;92.20
22173;DHT22;11252;50.596;17.648;2024-01-25T00:29:07;7.80;92.20
22173;DHT22;11252;50.596;17.648;2024-01-25T00:31:35;7.80;92.20
22173;DHT22;11252;50.596;17.648;2024-01-25T00:34:03;7.80;92.20
22173;DHT22;11252;50.596;17.648;2024-01-25T00:36:31;7.80;92.20
22173;DHT22;11252;50.596;17.648;2024-01-25T00:38:59;7.90;92.20
22173;DHT22;11252;50.596;17.648;2024-01-25T00:41:27;7.90;92.20
22173;DHT22;11252;50.596;17.648;2024-01-25T00:43:57;7.90;92.20
22173;DHT22;11252;50.596;17.648;2024-01-25T00:46:24;7.90;92.20
22173;DHT22;11252;50.596;17.648;2024-01-25T00:48:51;7.90;92.20
22173;DHT22;11252;50.596;17.648;2024-01-25T00:51:21;8.00;92.20
22173;DHT22;11252;50.596;17.648;2024-01-25T00:53:50;8.10;92.20
22173;DHT22;11252;50.596;17.648;2024-01-25T00:56:17;8.10;92.20
22173;DHT22;11252;50.596;17.648;2024-01-25T00:58:44;8.10;92.20
22173;DHT22;11252;50.596;17.648;2024-01-25T01:01:12;8.10;92.20
22173;DHT22;11252;50.596;17.648;2024-01-25T01:03:40;8.20;92.20
22173;DHT22;11252;50.596;17.648;2024-01-25T01:06:07;8.10;92.20
22173;DHT22;11252;50.596;17.648;2024-01-25T01:08:36;8.10;92.20
22173;DHT22;11252;50.596;17.648;2024-01-25T01:11:03;8.20;92.20
22173;DHT22;11252;50.596;17.648;2024-01-25T01:13:30;8.20;92.20
22173;DHT22;11252;50.596;17.648;2024-01-25T01:15:58;8.10;92.20
22173;DHT22;11252;50.596;17.648;2024-01-25T01:18:25;8.10;92.20
22173;DHT22;11252;50.596;17.648;2024-01-25T01:20:52;8.10;92.20
22173;DHT22;11252;50.596;17.648;2024-01-25T01:23:19;8.20;92.20
22173;DHT22;11252;50.596;17.648;2024-01-25T01:25:46;8.20;92.20
22173;DHT22;11252;50.596;17.648;2024-01-25T01:28:13;8.20;92.20
22173;DHT22;11252;50.596;17.648;2024-01-25T01:30:41;8.20;92.20
22173;DHT22;11252;50.596;17.648;2024-01-25T01:33:09;8.20;92.20
22173;DHT22;11252;50.596;17.648;2024-01-25T01:35:36;8.20;92.20
22173;DHT22;11252;50.596;17.648;2024-01-25T01:38:04;8.20;92.20
22173;DHT22;11252;50.596;17.648;2024-01-25T01:40:31;8.20;92.20
22173;DHT22;11252;50.596;17.648;2024-01-25T01:42:59;8.20;92.20
22173;DHT22;11252;50.596;17.648;2024-01-25T01:45:28;8.20;92.20
22173;DHT22;11252;50.596;17.648;2024-01-25T01:47:56;8.20;92.20
22173;DHT22;11252;50.596;17.648;2024-01-25T01:50:24;8.10;92.20
22173;DHT22;11252;50.596;17.648;2024-01-25T01:52:52;8.20;92.20
22173;DHT22;11252;50.596;17.648;2024-01-25T01:55:20;8.20;92.20
22173;DHT22;11252;50.596;17.648;2024-01-25T01:57:48;8.20;92.20
22173;DHT22;11252;50.596;17.648;2024-01-25T02:00:16;8.20;92.20
22173;DHT22;11252;50.596;17.648;2024-01-25T02:02:46;8.20;92.20
22173;DHT22;11252;50.596;17.648;2024-01-25T02:05:13;8.20;92.20
22173;DHT22;11252;50.596;17.648;2024-01-25T02:07:42;8.20;92.20
22173;DHT22;11252;50.596;17.648;2024-01-25T02:10:11;8.20;92.20
22173;DHT22;11252;50.596;17.648;2024-01-25T02:12:38;8.10;92.20
22173;DHT22;11252;50.596;17.648;2024-01-25T02:15:06;8.10;92.20
22173;DHT22;11252;50.596;17.648;2024-01-25T02:17:33;8.20;92.20
22173;DHT22;11252;50.596;17.648;2024-01-25T02:20:00;8.20;92.20
22173;DHT22;11252;50.596;17.648;2024-01-25T02:22:30;8.10;92.20
22173;DHT22;11252;50.596;17.648;2024-01-25T02:24:57;8.10;92.20
22173;DHT22;11252;50.596;17.648;2024-01-25T02:27:24;8.10;92.20
22173;DHT22;11252;50.596;17.648;2024-01-25T02:29:51;8.10;92.20
22173;DHT22;11252;50.596;17.648;2024-01-25T02:32:19;8.10;92.20
22173;DHT22;11252;50.596;17.648;2024-01-25T02:34:46;8.00;92.20
22173;DHT22;11252;50.596;17.648;2024-01-25T02:37:13;8.10;92.20
22173;DHT22;11252;50.596;17.648;2024-01-25T02:39:42;8.10;92.20
22173;DHT22;11252;50.596;17.648;2024-01-25T02:42:12;8.10;92.20
22173;DHT22;11252;50.596;17.648;2024-01-25T02:44:41;8.00;92.20
22173;DHT22;11252;50.596;17.648;2024-01-25T02:47:08;8.10;92.20
22173;DHT22;11252;50.596;17.648;2024-01-25T02:49:35;8.10;92.20
22173;DHT22;11252;50.596;17.648;2024-01-25T02:52:02;8.10;92.20
22173;DHT22;11252;50.596;17.648;2024-01-25T02:54:30;8.10;92.20
22173;DHT22;11252;50.596;17.648;2024-01-25T02:56:57;8.10;92.20
22173;DHT22;11252;50.596;17.648;2024-01-25T02:59:25;8.00;92.20
22173;DHT22;11252;50.596;17.648;2024-01-25T03:01:54;8.10;92.20
22173;DHT22;11252;50.596;17.648;2024-01-25T03:04:21;8.10;92.20
22173;DHT22;11252;50.596;17.648;2024-01-25T03:06:49;8.10;92.20
22173;DHT22;11252;50.596;17.648;2024-01-25T03:09:17;8.10;92.20
22173;DHT22;11252;50.596;17.648;2024-01-25T03:11:44;8.00;92.20
22173;DHT22;11252;50.596;17.648;2024-01-25T03:14:11;8.00;92.20
22173;DHT22;11252;50.596;17.648;2024-01-25T03:16:38;8.00;92.20
22173;DHT22;11252;50.596;17.648;2024-01-25T03:19:05;8.00;92.20
22173;DHT22;11252;50.596;17.648;2024-01-25T03:21:33;8.00;92.20
22173;DHT22;11252;50.596;17.648;2024-01-25T03:24:00;8.00;92.20
22173;DHT22;11252;50.596;17.648;2024-01-25T03:26:27;8.10;92.20
22173;DHT22;11252;50.596;17.648;2024-01-25T03:28:55;8.10;92.20
22173;DHT22;11252;50.596;17.648;2024-01-25T03:31:22;8.10;92.20
22173;DHT22;11252;50.596;17.648;2024-01-25T03:33:49;8.10;92.20
22173;DHT22;11252;50.596;17.648;2024-01-25T03:36:20;8.10;92.20
22173;DHT22;11252;50.596;17.648;2024-01-25T03:38:47;8.10;92.20
22173;DHT22;11252;50.596;17.648;2024-01-25T03:41:14;8.10;92.20
22173;DHT22;11252;50.596;17.648;2024-01-25T03:43:41;8.10;92.20
22173;DHT22;11252;50.596;17.648;2024-01-25T03:46:11;8.10;92.20
22173;DHT22;11252;50.596;17.648;2024-01-25T03:48:39;8.10;92.20
22173;DHT22;11252;50.596;17.648;2024-01-25T03:51:07;8.10;92.20
22173;DHT22;11252;50.596;17.648;2024-01-25T03:53:34;8.10;92.20
22173;DHT22;11252;50.596;17.648;2024-01-25T03:56:02;8.10;92.20
22173;DHT22;11252;50.596;17.648;2024-01-25T03:58:29;8.10;92.20
22173;DHT22;11252;50.596;17.648;2024-01-25T04:00:56;8.10;92.20
22173;DHT22;11252;50.596;17.648;2024-01-25T04:03:23;8.10;92.20
22173;DHT22;11252;50.596;17.648;2024-01-25T04:05:50;8.10;92.20
22173;DHT22;11252;50.596;17.648;2024-01-25T04:08:17;8.10;92.20
22173;DHT22;11252;50.596;17.648;2024-01-25T04:10:44;8.10;92.20
22173;DHT22;11252;50.596;17.648;2024-01-25T04:13:11;8.10;92.20
22173;DHT22;11252;50.596;17.648;2024-01-25T04:15:38;8.10;92.20
22173;DHT22;11252;50.596;17.648;2024-01-25T04:18:06;8.20;92.20
22173;DHT22;11252;50.596;17.648;2024-01-25T04:20:33;8.10;92.20
22173;DHT22;11252;50.596;17.648;2024-01-25T04:23:02;8.20;92.20
22173;DHT22;11252;50.596;17.648;2024-01-25T04:25:29;8.10;92.20
22173;DHT22;11252;50.596;17.648;2024-01-25T04:28:00;8.10;92.20
22173;DHT22;11252;50.596;17.648;2024-01-25T04:30:27;8.10;92.20
22173;DHT22;11252;50.596;17.648;2024-01-25T04:32:54;8.10;92.20
22173;DHT22;11252;50.596;17.648;2024-01-25T04:35:23;8.10;92.20
22173;DHT22;11252;50.596;17.648;2024-01-25T04:37:50;8.10;92.20
22173;DHT22;11252;50.596;17.648;2024-01-25T04:40:17;8.20;92.20
22173;DHT22;11252;50.596;17.648;2024-01-25T04:42:46;8.10;92.20
22173;DHT22;11252;50.596;17.648;2024-01-25T04:45:13;8.10;92.20
22173;DHT22;11252;50.596;17.648;2024-01-25T04:47:40;8.10;92.20
22173;DHT22;11252;50.596;17.648;2024-01-25T04:50:08;8.00;92.20
22173;DHT22;11252;50.596;17.648;2024-01-25T04:52:35;8.00;92.20
22173;DHT22;11252;50.596;17.648;2024-01-25T04:55:02;7.90;92.20
22173;DHT22;11252;50.596;17.648;2024-01-25T04:57:29;7.90;92.20
22173;DHT22;11252;50.596;17.648;2024-01-25T04:59:56;8.00;92.20
22173;DHT22;11252;50.596;17.648;2024-01-25T05:02:24;8.00;92.20
22173;DHT22;11252;50.596;17.648;2024-01-25T05:04:51;8.00;92.20
22173;DHT22;11252;50.596;17.648;2024-01-25T05:07:18;8.10;92.20
22173;DHT22;11252;50.596;17.648;2024-01-25T05:09:55;8.00;92.20
22173;DHT22;11252;50.596;17.648;2024-01-25T05:12:22;8.10;92.20
22173;DHT22;11252;50.596;17.648;2024-01-25T05:14:49;8.10;92.20
22173;DHT22;11252;50.596;17.648;2024-01-25T05:17:17;8.10;92.20
22173;DHT22;11252;50.596;17.648;2024-01-25T05:19:44;8.00;92.20
22173;DHT22;11252;50.596;17.648;2024-01-25T05:22:12;8.10;92.20
22173;DHT22;11252;50.596;17.648;2024-01-25T05:24:39;8.10;92.20
22173;DHT22;11252;50.596;17.648;2024-01-25T05:27:06;8.00;92.20
22173;DHT22;11252;50.596;17.648;2024-01-25T05:29:34;8.00;92.20
22173;DHT22;11252;50.596;17.648;2024-01-25T05:32:01;8.00;92.20
22173;DHT22;11252;50.596;17.648;2024-01-25T05:34:29;8.00;92.20
22173;DHT22;11252;50.596;17.648;2024-01-25T05:36:56;8.10;92.20
22173;DHT22;11252;50.596;17.648;2024-01-25T05:39:23;8.10;92.20
22173;DHT22;11252;50.596;17.648;2024-01-25T05:41:50;8.10;92.20
22173;DHT22;11252;50.596;17.648;2024-01-25T05:44:17;8.00;92.20
22173;DHT22;11252;50.596;17.648;2024-01-25T05:46:44;8.00;92.20
22173;DHT22;11252;50.596;17.648;2024-01-25T05:49:11;7.90;92.20
22173;DHT22;11252;50.596;17.648;2024-01-25T05:51:39;7.90;92.20
22173;DHT22;11252;50.596;17.648;2024-01-25T05:54:06;7.90;92.20
22173;DHT22;11252;50.596;17.648;2024-01-25T05:56:33;7.90;92.20
22173;DHT22;11252;50.596;17.648;2024-01-25T05:59:00;7.80;92.20
22173;DHT22;11252;50.596;17.648;2024-01-25T06:01:27;7.80;92.20
22173;DHT22;11252;50.596;17.648;2024-01-25T06:03:54;7.80;92.20
22173;DHT22;11252;50.596;17.648;2024-01-25T06:06:22;7.80;92.20
22173;DHT22;11252;50.596;17.648;2024-01-25T06:08:49;7.80;92.20
22173;DHT22;11252;50.596;17.648;2024-01-25T06:11:28;7.90;92.20
22173;DHT22;11252;50.596;17.648;2024-01-25T06:13:55;7.90;92.20
22173;DHT22;11252;50.596;17.648;2024-01-25T06:16:22;7.90;92.20
22173;DHT22;11252;50.596;17.648;2024-01-25T06:18:50;7.80;92.20
22173;DHT22;11252;50.596;17.648;2024-01-25T06:21:17;7.80;92.20
22173;DHT22;11252;50.596;17.648;2024-01-25T06:23:44;7.80;92.20
22173;DHT22;11252;50.596;17.648;2024-01-25T06:26:11;7.80;92.20
22173;DHT22;11252;50.596;17.648;2024-01-25T06:28:38;7.80;92.20
22173;DHT22;11252;50.596;17.648;2024-01-25T06:31:07;7.80;92.20
22173;DHT22;11252;50.596;17.648;2024-01-25T06:33:34;7.80;92.20
22173;DHT22;11252;50.596;17.648;2024-01-25T06:36:02;7.80;92.20
22173;DHT22;11252;50.596;17.648;2024-01-25T06:38:29;7.80;92.20
22173;DHT22;11252;50.596;17.648;2024-01-25T06:40:56;7.80;92.20
22173;DHT22;11252;50.596;17.648;2024-01-25T06:43:23;7.80;92.20
22173;DHT22;11252;50.596;17.648;2024-01-25T06:45:50;7.80;92.20
22173;DHT22;11252;50.596;17.648;2024-01-25T06:48:17;7.70;92.20
22173;DHT22;11252;50.596;17.648;2024-01-25T06:50:45;7.80;92.20
22173;DHT22;11252;50.596;17.648;2024-01-25T06:53:12;7.80;92.20
22173;DHT22;11252;50.596;17.648;2024-01-25T06:55:39;7.80;92.20
22173;DHT22;11252;50.596;17.648;2024-01-25T06:58:06;7.80;92.20
22173;DHT22;11252;50.596;17.648;2024-01-25T07:00:34;7.80;92.20
22173;DHT22;11252;50.596;17.648;2024-01-25T07:03:02;7.80;92.20
22173;DHT22;11252;50.596;17.648;2024-01-25T07:05:31;7.70;92.20
22173;DHT22;11252;50.596;17.648;2024-01-25T07:08:01;7.70;92.20
22173;DHT22;11252;50.596;17.648;2024-01-25T07:10:28;7.70;92.20
22173;DHT22;11252;50.596;17.648;2024-01-25T07:12:55;7.80;92.20
22173;DHT22;11252;50.596;17.648;2024-01-25T07:15:22;7.80;92.20
22173;DHT22;11252;50.596;17.648;2024-01-25T07:17:51;7.70;92.20
22173;DHT22;11252;50.596;17.648;2024-01-25T07:20:18;7.70;92.20
22173;DHT22;11252;50.596;17.648;2024-01-25T07:22:49;7.70;92.20
22173;DHT22;11252;50.596;17.648;2024-01-25T07:25:17;7.70;92.20
22173;DHT22;11252;50.596;17.648;2024-01-25T07:27:45;7.70;92.20
22173;DHT22;11252;50.596;17.648;2024-01-25T07:30:13;7.70;92.20
22173;DHT22;11252;50.596;17.648;2024-01-25T07:32:41;7.80;92.20
22173;DHT22;11252;50.596;17.648;2024-01-25T07:35:09;7.70;92.20
22173;DHT22;11252;50.596;17.648;2024-01-25T07:37:37;7.80;92.20
22173;DHT22;11252;50.596;17.648;2024-01-25T07:40:04;7.70;92.20
22173;DHT22;11252;50.596;17.648;2024-01-25T07:42:31;7.70;92.20
22173;DHT22;11252;50.596;17.648;2024-01-25T07:44:58;7.70;92.20
22173;DHT22;11252;50.596;17.648;2024-01-25T07:54:02;7.70;92.20
22173;DHT22;11252;50.596;17.648;2024-01-25T07:56:31;7.60;92.20
22173;DHT22;11252;50.596;17.648;2024-01-25T07:58:58;7.70;92.20
22173;DHT22;11252;50.596;17.648;2024-01-25T08:01:27;7.70;92.20
22173;DHT22;11252;50.596;17.648;2024-01-25T08:03:55;7.70;92.20
22173;DHT22;11252;50.596;17.648;2024-01-25T08:06:22;7.70;92.20
22173;DHT22;11252;50.596;17.648;2024-01-25T08:08:50;7.70;92.20
22173;DHT22;11252;50.596;17.648;2024-01-25T08:11:17;7.70;92.20
22173;DHT22;11252;50.596;17.648;2024-01-25T08:13:47;7.80;92.20
22173;DHT22;11252;50.596;17.648;2024-01-25T08:16:15;7.80;92.20
22173;DHT22;11252;50.596;17.648;2024-01-25T08:18:49;7.80;92.20
22173;DHT22;11252;50.596;17.648;2024-01-25T08:21:17;7.80;92.20
22173;DHT22;11252;50.596;17.648;2024-01-25T08:23:44;7.80;92.20
22173;DHT22;11252;50.596;17.648;2024-01-25T08:26:12;7.80;92.20
22173;DHT22;11252;50.596;17.648;2024-01-25T08:28:40;7.80;92.20
22173;DHT22;11252;50.596;17.648;2024-01-25T08:31:08;7.80;92.20
22173;DHT22;11252;50.596;17.648;2024-01-25T08:33:36;7.80;92.20
22173;DHT22;11252;50.596;17.648;2024-01-25T08:36:04;7.80;92.20
22173;DHT22;11252;50.596;17.648;2024-01-25T08:38:31;7.80;92.20
22173;DHT22;11252;50.596;17.648;2024-01-25T08:41:00;7.90;92.20
22173;DHT22;11252;50.596;17.648;2024-01-25T08:43:30;7.80;92.20
22173;DHT22;11252;50.596;17.648;2024-01-25T08:45:57;7.90;92.20
22173;DHT22;11252;50.596;17.648;2024-01-25T08:48:24;7.90;92.20
22173;DHT22;11252;50.596;17.648;2024-01-25T08:50:54;7.90;92.20
22173;DHT22;11252;50.596;17.648;2024-01-25T08:53:23;7.90;92.20
22173;DHT22;11252;50.596;17.648;2024-01-25T08:55:54;8.00;92.20
22173;DHT22;11252;50.596;17.648;2024-01-25T08:58:22;7.90;92.20
22173;DHT22;11252;50.596;17.648;2024-01-25T09:00:49;7.90;92.20
22173;DHT22;11252;50.596;17.648;2024-01-25T09:03:17;8.00;92.20
22173;DHT22;11252;50.596;17.648;2024-01-25T09:05:45;8.00;92.20
22173;DHT22;11252;50.596;17.648;2024-01-25T09:08:13;8.00;92.20
22173;DHT22;11252;50.596;17.648;2024-01-25T09:10:41;8.00;92.20
22173;DHT22;11252;50.596;17.648;2024-01-25T09:13:09;7.90;92.20
22173;DHT22;11252;50.596;17.648;2024-01-25T09:15:36;7.80;92.20
22173;DHT22;11252;50.596;17.648;2024-01-25T09:18:04;7.70;92.20
22173;DHT22;11252;50.596;17.648;2024-01-25T09:20:31;7.70;92.20
22173;DHT22;11252;50.596;17.648;2024-01-25T09:22:59;7.70;92.20
22173;DHT22;11252;50.596;17.648;2024-01-25T09:25:26;7.70;92.20
22173;DHT22;11252;50.596;17.648;2024-01-25T09:27:54;7.70;92.20
22173;DHT22;11252;50.596;17.648;2024-01-25T09:30:23;7.70;92.20
22173;DHT22;11252;50.596;17.648;2024-01-25T09:32:50;7.70;92.20
22173;DHT22;11252;50.596;17.648;2024-01-25T09:35:18;7.70;92.20
22173;DHT22;11252;50.596;17.648;2024-01-25T09:37:45;7.70;92.20
22173;DHT22;11252;50.596;17.648;2024-01-25T09:40:13;7.80;92.20
22173;DHT22;11252;50.596;17.648;2024-01-25T09:42:41;7.80;92.20
22173;DHT22;11252;50.596;17.648;2024-01-25T09:45:11;7.80;92.20
22173;DHT22;11252;50.596;17.648;2024-01-25T09:47:44;7.80;92.20
22173;DHT22;11252;50.596;17.648;2024-01-25T09:50:12;7.90;92.20
22173;DHT22;11252;50.596;17.648;2024-01-25T09:52:43;7.90;92.20
22173;DHT22;11252;50.596;17.648;2024-01-25T09:55:12;7.90;92.20
22173;DHT22;11252;50.596;17.648;2024-01-25T09:57:45;8.00;92.20
22173;DHT22;11252;50.596;17.648;2024-01-25T10:00:17;8.00;92.20
22173;DHT22;11252;50.596;17.648;2024-01-25T10:02:44;8.00;92.20
22173;DHT22;11252;50.596;17.648;2024-01-25T10:05:12;8.10;92.20
22173;DHT22;11252;50.596;17.648;2024-01-25T10:07:40;8.10;92.20
22173;DHT22;11252;50.596;17.648;2024-01-25T10:10:10;8.10;92.20
22173;DHT22;11252;50.596;17.648;2024-01-25T10:12:39;8.00;92.20
22173;DHT22;11252;50.596;17.648;2024-01-25T10:15:07;7.90;92.20
22173;DHT22;11252;50.596;17.648;2024-01-25T10:17:35;8.00;92.20
22173;DHT22;11252;50.596;17.648;2024-01-25T10:20:23;8.10;92.20
22173;DHT22;11252;50.596;17.648;2024-01-25T10:22:55;8.10;92.20
22173;DHT22;11252;50.596;17.648;2024-01-25T10:25:26;8.00;92.20
22173;DHT22;11252;50.596;17.648;2024-01-25T10:27:54;8.10;92.20
22173;DHT22;11252;50.596;17.648;2024-01-25T10:30:25;8.10;92.20
22173;DHT22;11252;50.596;17.648;2024-01-25T10:32:53;8.10;92.20
22173;DHT22;11252;50.596;17.648;2024-01-25T10:35:25;8.10;92.20
22173;DHT22;11252;50.596;17.648;2024-01-25T10:37:54;8.10;92.20
22173;DHT22;11252;50.596;17.648;2024-01-25T10:40:22;8.10;92.20
22173;DHT22;11252;50.596;17.648;2024-01-25T10:42:50;8.00;92.20
22173;DHT22;11252;50.596;17.648;2024-01-25T10:45:18;8.10;92.20
22173;DHT22;11252;50.596;17.648;2024-01-25T10:47:50;8.10;92.20
22173;DHT22;11252;50.596;17.648;2024-01-25T10:50:18;8.10;92.20
22173;DHT22;11252;50.596;17.648;2024-01-25T10:52:47;8.10;92.20
22173;DHT22;11252;50.596;17.648;2024-01-25T10:55:15;8.10;92.20
22173;DHT22;11252;50.596;17.648;2024-01-25T10:57:44;8.20;92.20
22173;DHT22;11252;50.596;17.648;2024-01-25T11:00:14;8.10;92.20
22173;DHT22;11252;50.596;17.648;2024-01-25T11:02:45;8.10;92.20
22173;DHT22;11252;50.596;17.648;2024-01-25T11:05:14;8.20;92.20
22173;DHT22;11252;50.596;17.648;2024-01-25T11:10:18;8.10;92.20
22173;DHT22;11252;50.596;17.648;2024-01-25T11:15:30;8.10;92.20
22173;DHT22;11252;50.596;17.648;2024-01-25T11:17:58;8.10;92.20
22173;DHT22;11252;50.596;17.648;2024-01-25T11:20:28;8.00;92.20
22173;DHT22;11252;50.596;17.648;2024-01-25T11:23:01;8.10;92.20
22173;DHT22;11252;50.596;17.648;2024-01-25T11:25:30;8.00;92.20
22173;DHT22;11252;50.596;17.648;2024-01-25T11:28:00;8.10;92.20
22173;DHT22;11252;50.596;17.648;2024-01-25T11:30:29;8.10;92.20
22173;DHT22;11252;50.596;17.648;2024-01-25T11:32:57;8.10;92.20
22173;DHT22;11252;50.596;17.648;2024-01-25T11:35:24;8.10;92.20
22173;DHT22;11252;50.596;17.648;2024-01-25T11:37:57;8.10;92.20
22173;DHT22;11252;50.596;17.648;2024-01-25T11:40:24;8.10;92.20
22173;DHT22;11252;50.596;17.648;2024-01-25T11:42:52;8.10;92.20
22173;DHT22;11252;50.596;17.648;2024-01-25T11:45:20;8.10;92.20
22173;DHT22;11252;50.596;17.648;2024-01-25T11:47:47;8.00;92.20
22173;DHT22;11252;50.596;17.648;2024-01-25T11:50:15;7.90;92.20
22173;DHT22;11252;50.596;17.648;2024-01-25T11:52:43;7.60;92.20
22173;DHT22;11252;50.596;17.648;2024-01-25T11:55:11;7.40;92.20
22173;DHT22;11252;50.596;17.648;2024-01-25T11:57:41;7.10;92.20
22173;DHT22;11252;50.596;17.648;2024-01-25T12:00:12;7.10;92.20
22173;DHT22;11252;50.596;17.648;2024-01-25T12:02:41;7.00;92.20
22173;DHT22;11252;50.596;17.648;2024-01-25T12:05:10;7.00;92.20
22173;DHT22;11252;50.596;17.648;2024-01-25T12:07:39;7.00;92.20
22173;DHT22;11252;50.596;17.648;2024-01-25T12:10:10;6.90;92.20
22173;DHT22;11252;50.596;17.648;2024-01-25T12:12:37;7.00;92.20
22173;DHT22;11252;50.596;17.648;2024-01-25T12:15:06;7.10;92.20
22173;DHT22;11252;50.596;17.648;2024-01-25T12:17:35;7.10;92.20
22173;DHT22;11252;50.596;17.648;2024-01-25T12:20:07;7.10;92.20
22173;DHT22;11252;50.596;17.648;2024-01-25T12:22:39;7.20;92.20
22173;DHT22;11252;50.596;17.648;2024-01-25T12:25:09;7.20;92.20
22173;DHT22;11252;50.596;17.648;2024-01-25T12:27:41;7.30;92.20
22173;DHT22;11252;50.596;17.648;2024-01-25T12:30:09;7.30;92.20
22173;DHT22;11252;50.596;17.648;2024-01-25T12:32:36;7.40;92.20
22173;DHT22;11252;50.596;17.648;2024-01-25T12:35:05;7.40;92.20
22173;DHT22;11252;50.596;17.648;2024-01-25T12:37:32;7.50;92.20
22173;DHT22;11252;50.596;17.648;2024-01-25T12:40:00;7.50;92.20
22173;DHT22;11252;50.596;17.648;2024-01-25T12:42:32;7.50;92.20
22173;DHT22;11252;50.596;17.648;2024-01-25T12:44:59;7.60;92.20
22173;DHT22;11252;50.596;17.648;2024-01-25T12:47:26;7.60;92.20
22173;DHT22;11252;50.596;17.648;2024-01-25T12:49:54;7.60;92.20
22173;DHT22;11252;50.596;17.648;2024-01-25T12:52:22;7.60;92.20
22173;DHT22;11252;50.596;17.648;2024-01-25T12:54:50;7.60;92.20
22173;DHT22;11252;50.596;17.648;2024-01-25T12:57:17;7.60;92.20
22173;DHT22;11252;50.596;17.648;2024-01-25T12:59:45;7.70;92.20
22173;DHT22;11252;50.596;17.648;2024-01-25T13:02:14;7.70;92.20
22173;DHT22;11252;50.596;17.648;2024-01-25T13:04:41;7.60;92.20
22173;DHT22;11252;50.596;17.648;2024-01-25T13:07:09;7.70;92.20
22173;DHT22;11252;50.596;17.648;2024-01-25T13:09:36;7.60;92.20
22173;DHT22;11252;50.596;17.648;2024-01-25T13:12:04;7.60;92.20
22173;DHT22;11252;50.596;17.648;2024-01-25T13:14:32;7.70;92.20
22173;DHT22;11252;50.596;17.648;2024-01-25T13:17:00;7.60;92.20
22173;DHT22;11252;50.596;17.648;2024-01-25T13:19:27;7.70;92.20
22173;DHT22;11252;50.596;17.648;2024-01-25T13:21:55;7.70;92.20
22173;DHT22;11252;50.596;17.648;2024-01-25T13:24:22;7.70;92.20
22173;DHT22;11252;50.596;17.648;2024-01-25T13:26:49;7.70;92.20
22173;DHT22;11252;50.596;17.648;2024-01-25T13:29:17;7.70;92.20
22173;DHT22;11252;50.596;17.648;2024-01-25T13:31:44;7.70;92.20
22173;DHT22;11252;50.596;17.648;2024-01-25T13:34:11;7.70;92.20
22173;DHT22;11252;50.596;17.648;2024-01-25T13:36:39;7.80;92.20
22173;DHT22;11252;50.596;17.648;2024-01-25T13:39:07;7.70;92.20
22173;DHT22;11252;50.596;17.648;2024-01-25T13:41:36;7.70;92.20
22173;DHT22;11252;50.596;17.648;2024-01-25T13:44:03;7.70;92.20
22173;DHT22;11252;50.596;17.648;2024-01-25T13:46:30;7.70;92.20
22173;DHT22;11252;50.596;17.648;2024-01-25T13:48:58;7.70;92.20
22173;DHT22;11252;50.596;17.648;2024-01-25T13:51:25;7.60;92.20
22173;DHT22;11252;50.596;17.648;2024-01-25T13:53:52;7.60;92.20
22173;DHT22;11252;50.596;17.648;2024-01-25T13:56:22;7.60;92.20
22173;DHT22;11252;50.596;17.648;2024-01-25T13:58:51;7.50;92.20
22173;DHT22;11252;50.596;17.648;2024-01-25T14:01:20;7.50;92.20
22173;DHT22;11252;50.596;17.648;2024-01-25T14:03:48;7.50;92.20
22173;DHT22;11252;50.596;17.648;2024-01-25T14:06:16;7.50;92.20
22173;DHT22;11252;50.596;17.648;2024-01-25T14:08:44;7.50;92.20
22173;DHT22;11252;50.596;17.648;2024-01-25T14:11:11;7.50;92.20
22173;DHT22;11252;50.596;17.648;2024-01-25T14:13:38;7.40;92.20
22173;DHT22;11252;50.596;17.648;2024-01-25T14:16:06;7.40;92.20
22173;DHT22;11252;50.596;17.648;2024-01-25T14:18:38;7.50;92.20
22173;DHT22;11252;50.596;17.648;2024-01-25T14:21:06;7.40;92.20
22173;DHT22;11252;50.596;17.648;2024-01-25T14:23:34;7.40;92.20
22173;DHT22;11252;50.596;17.648;2024-01-25T14:26:04;7.40;92.20
22173;DHT22;11252;50.596;17.648;2024-01-25T14:28:32;7.40;92.20
22173;DHT22;11252;50.596;17.648;2024-01-25T14:30:59;7.40;92.20
22173;DHT22;11252;50.596;17.648;2024-01-25T14:33:30;7.40;92.20
22173;DHT22;11252;50.596;17.648;2024-01-25T14:35:57;7.40;92.20
22173;DHT22;11252;50.596;17.648;2024-01-25T14:38:24;7.30;92.20
22173;DHT22;11252;50.596;17.648;2024-01-25T14:40:51;7.30;92.20
22173;DHT22;11252;50.596;17.648;2024-01-25T14:43:26;7.30;92.20
22173;DHT22;11252;50.596;17.648;2024-01-25T14:45:53;7.30;92.20
22173;DHT22;11252;50.596;17.648;2024-01-25T14:48:21;7.30;92.20
22173;DHT22;11252;50.596;17.648;2024-01-25T14:50:48;7.30;92.20
22173;DHT22;11252;50.596;17.648;2024-01-25T14:53:15;7.20;92.20
22173;DHT22;11252;50.596;17.648;2024-01-25T14:55:45;7.20;92.20
22173;DHT22;11252;50.596;17.648;2024-01-25T14:58:12;7.20;92.20
22173;DHT22;11252;50.596;17.648;2024-01-25T15:00:44;7.20;92.20
22173;DHT22;11252;50.596;17.648;2024-01-25T15:03:13;7.20;92.20
22173;DHT22;11252;50.596;17.648;2024-01-25T15:05:41;7.20;92.20
22173;DHT22;11252;50.596;17.648;2024-01-25T15:08:08;7.20;92.20
22173;DHT22;11252;50.596;17.648;2024-01-25T15:10:35;7.20;92.20
22173;DHT22;11252;50.596;17.648;2024-01-25T15:13:03;7.20;92.20
22173;DHT22;11252;50.596;17.648;2024-01-25T15:15:30;7.20;92.20
22173;DHT22;11252;50.596;17.648;2024-01-25T15:17:58;7.20;92.20
22173;DHT22;11252;50.596;17.648;2024-01-25T15:20:25;7.20;92.20
22173;DHT22;11252;50.596;17.648;2024-01-25T15:22:54;7.20;92.20
22173;DHT22;11252;50.596;17.648;2024-01-25T15:25:24;7.20;92.20
22173;DHT22;11252;50.596;17.648;2024-01-25T15:27:53;7.20;92.20
22173;DHT22;11252;50.596;17.648;2024-01-25T15:30:21;7.30;92.20
22173;DHT22;11252;50.596;17.648;2024-01-25T15:32:49;7.30;92.20
22173;DHT22;11252;50.596;17.648;2024-01-25T15:35:16;7.20;92.20
22173;DHT22;11252;50.596;17.648;2024-01-25T15:37:43;7.20;92.20
22173;DHT22;11252;50.596;17.648;2024-01-25T15:40:12;7.20;92.20
22173;DHT22;11252;50.596;17.648;2024-01-25T15:42:43;7.20;92.20
22173;DHT22;11252;50.596;17.648;2024-01-25T15:45:19;7.20;92.20
22173;DHT22;11252;50.596;17.648;2024-01-25T15:47:46;7.20;92.20